CES868 WARR-ZSAM
Flight info
| Callsign | CES868 |
|---|---|
| Flight time | N/A |
| Altitude | 34000 |
| Route | PEDSO DCT DOBMA M522 ELANG/N0469F350 M522 VJN M646 OLRAX/N0465F360 W3 LUBAN/N0465F350 B591 SANRO/N0464F370 M646 POTIB Q14 TNN/N0464F360 W6 SANDY |
| Aircraft | A321/M-SDE3FGHIRWY/LB1 |
Departure
| Time | 2026-05-07 06:20 |
|---|---|
| Airport | Juanda International Airport (WARR) |
Arrival
| Time | N/A |
|---|---|
| Airport | Xiamen Gaoqi International Airport (ZSAM) |
| Time | Latitude | Longitude | Altitude | Speed | Heading |
|---|---|---|---|---|---|
| 2026-05-07 06:00 | -7.37578 | 112.79409 | 9 ft | 0 kts | 9° |
| 2026-05-07 06:09 | -7.37579 | 112.79409 | 9 ft | 0 kts | 9° |
| 2026-05-07 06:11 | -7.37593 | 112.79406 | 9 ft | 4 kts | 7° |
| 2026-05-07 06:11 | -7.37620 | 112.79404 | 12 ft | 4 kts | 1° |
| 2026-05-07 06:11 | -7.37647 | 112.79405 | 11 ft | 4 kts | 346° |
| 2026-05-07 06:11 | -7.37668 | 112.79416 | 12 ft | 4 kts | 295° |
| 2026-05-07 06:12 | -7.37671 | 112.79422 | 13 ft | 2 kts | 279° |
| 2026-05-07 06:15 | -7.37671 | 112.79420 | 13 ft | 2 kts | 279° |
| 2026-05-07 06:15 | -7.37667 | 112.79393 | 11 ft | 6 kts | 277° |
| 2026-05-07 06:15 | -7.37661 | 112.79347 | 10 ft | 10 kts | 278° |
| 2026-05-07 06:15 | -7.37646 | 112.79253 | 10 ft | 14 kts | 279° |
| 2026-05-07 06:16 | -7.37631 | 112.79160 | 9 ft | 13 kts | 278° |
| 2026-05-07 06:16 | -7.37667 | 112.79091 | 9 ft | 15 kts | 221° |
| 2026-05-07 06:16 | -7.37673 | 112.78968 | 9 ft | 21 kts | 277° |
| 2026-05-07 06:16 | -7.37756 | 112.78891 | 9 ft | 17 kts | 190° |
| 2026-05-07 06:17 | -7.37825 | 112.78807 | 9 ft | 21 kts | 279° |
| 2026-05-07 06:17 | -7.37800 | 112.78626 | 9 ft | 31 kts | 280° |
| 2026-05-07 06:17 | -7.37763 | 112.78408 | 9 ft | 31 kts | 279° |
| 2026-05-07 06:17 | -7.37730 | 112.78201 | 9 ft | 29 kts | 279° |
| 2026-05-07 06:18 | -7.37700 | 112.78006 | 9 ft | 27 kts | 278° |
| 2026-05-07 06:18 | -7.37671 | 112.77824 | 9 ft | 26 kts | 279° |
| 2026-05-07 06:18 | -7.37642 | 112.77650 | 9 ft | 24 kts | 279° |
| 2026-05-07 06:18 | -7.37614 | 112.77486 | 9 ft | 23 kts | 279° |
| 2026-05-07 06:19 | -7.37679 | 112.77380 | 8 ft | 18 kts | 190° |
| 2026-05-07 06:19 | -7.37774 | 112.77415 | 9 ft | 14 kts | 118° |
| 2026-05-07 06:19 | -7.37795 | 112.77526 | 9 ft | 24 kts | 99° |
| 2026-05-07 06:19 | -7.37856 | 112.77909 | 10 ft | 87 kts | 99° |
| 2026-05-07 06:20 | -7.37984 | 112.78697 | 10 ft | 138 kts | 99° |
| 2026-05-07 06:20 | -7.38171 | 112.79777 | 110 ft | 169 kts | 99° |
| 2026-05-07 06:20 | -7.38363 | 112.80925 | 752 ft | 164 kts | 98° |
| 2026-05-07 06:20 | -7.38547 | 112.82072 | 1244 ft | 165 kts | 98° |
| 2026-05-07 06:21 | -7.38727 | 112.83241 | 1527 ft | 174 kts | 97° |
| 2026-05-07 06:21 | -7.38929 | 112.84500 | 1692 ft | 191 kts | 99° |
| 2026-05-07 06:21 | -7.39149 | 112.85877 | 1830 ft | 207 kts | 98° |
| 2026-05-07 06:21 | -7.39388 | 112.87366 | 1953 ft | 225 kts | 99° |
| 2026-05-07 06:22 | -7.39652 | 112.89007 | 2088 ft | 249 kts | 99° |
| 2026-05-07 06:22 | -7.39860 | 112.91954 | 2997 ft | 260 kts | 78° |
| 2026-05-07 06:22 | -7.38769 | 112.94123 | 3872 ft | 264 kts | 54° |
| 2026-05-07 06:23 | -7.37674 | 112.95584 | 4542 ft | 265 kts | 54° |
| 2026-05-07 06:23 | -7.36920 | 112.96591 | 4974 ft | 268 kts | 54° |
| 2026-05-07 06:23 | -7.35429 | 112.98589 | 5947 ft | 271 kts | 55° |
| 2026-05-07 06:23 | -7.34278 | 113.00134 | 6610 ft | 273 kts | 55° |
| 2026-05-07 06:24 | -7.33522 | 113.01152 | 7016 ft | 274 kts | 55° |
| 2026-05-07 06:24 | -7.32043 | 113.03136 | 8182 ft | 260 kts | 54° |
| 2026-05-07 06:24 | -7.31310 | 113.04115 | 8665 ft | 259 kts | 53° |
| 2026-05-07 06:24 | -7.29480 | 113.05663 | 9412 ft | 263 kts | 34° |
| 2026-05-07 06:25 | -7.28441 | 113.06338 | 9804 ft | 264 kts | 34° |
| 2026-05-07 06:25 | -7.26885 | 113.07337 | 10274 ft | 267 kts | 33° |
| 2026-05-07 06:25 | -7.25314 | 113.08344 | 10795 ft | 268 kts | 33° |
| 2026-05-07 06:25 | -7.23730 | 113.09359 | 11275 ft | 271 kts | 34° |
| 2026-05-07 06:26 | -7.22124 | 113.10389 | 11737 ft | 275 kts | 33° |
| 2026-05-07 06:26 | -7.20499 | 113.11431 | 12208 ft | 279 kts | 33° |
| 2026-05-07 06:26 | -7.18848 | 113.12490 | 12656 ft | 283 kts | 33° |
| 2026-05-07 06:26 | -7.17177 | 113.13563 | 13117 ft | 287 kts | 33° |
| 2026-05-07 06:27 | -7.15485 | 113.14650 | 13579 ft | 290 kts | 32° |
| 2026-05-07 06:27 | -7.13777 | 113.15746 | 14012 ft | 292 kts | 32° |
| 2026-05-07 06:27 | -7.12054 | 113.16852 | 14437 ft | 295 kts | 32° |
| 2026-05-07 06:27 | -7.10305 | 113.17975 | 14691 ft | 305 kts | 33° |
| 2026-05-07 06:28 | -7.08475 | 113.19151 | 14815 ft | 320 kts | 32° |
| 2026-05-07 06:28 | -7.06557 | 113.20383 | 14936 ft | 334 kts | 32° |
| 2026-05-07 06:28 | -7.04559 | 113.21666 | 15056 ft | 348 kts | 32° |
| 2026-05-07 06:28 | -7.02478 | 113.23001 | 15175 ft | 361 kts | 32° |
| 2026-05-07 06:29 | -7.00322 | 113.24385 | 15291 ft | 374 kts | 32° |
| 2026-05-07 06:29 | -6.98121 | 113.25797 | 15415 ft | 386 kts | 32° |
| 2026-05-07 06:29 | -6.95822 | 113.27271 | 15525 ft | 397 kts | 33° |
| 2026-05-07 06:29 | -6.93461 | 113.28785 | 15658 ft | 407 kts | 33° |
| 2026-05-07 06:30 | -6.91046 | 113.30337 | 15767 ft | 417 kts | 33° |
| 2026-05-07 06:30 | -6.88582 | 113.31919 | 15956 ft | 423 kts | 32° |
| 2026-05-07 06:30 | -6.86091 | 113.33515 | 16241 ft | 426 kts | 32° |
| 2026-05-07 06:30 | -6.83584 | 113.35119 | 16559 ft | 428 kts | 33° |
| 2026-05-07 06:31 | -6.81063 | 113.36731 | 16876 ft | 430 kts | 33° |
| 2026-05-07 06:31 | -6.78531 | 113.38352 | 17192 ft | 432 kts | 33° |
| 2026-05-07 06:31 | -6.75984 | 113.39981 | 17495 ft | 435 kts | 32° |
| 2026-05-07 06:31 | -6.73428 | 113.41616 | 17794 ft | 437 kts | 33° |
| 2026-05-07 06:32 | -6.70859 | 113.43261 | 18090 ft | 439 kts | 32° |
| 2026-05-07 06:32 | -6.68279 | 113.44914 | 18354 ft | 441 kts | 33° |
| 2026-05-07 06:32 | -6.65690 | 113.46574 | 18614 ft | 442 kts | 32° |
| 2026-05-07 06:32 | -6.63091 | 113.48244 | 18870 ft | 444 kts | 33° |
| 2026-05-07 06:33 | -6.60482 | 113.49917 | 19129 ft | 446 kts | 32° |
| 2026-05-07 06:33 | -6.57861 | 113.51593 | 19391 ft | 447 kts | 32° |
| 2026-05-07 06:33 | -6.55227 | 113.53273 | 19641 ft | 449 kts | 32° |
| 2026-05-07 06:33 | -6.52585 | 113.54961 | 19893 ft | 451 kts | 32° |
| 2026-05-07 06:34 | -6.49932 | 113.56656 | 20137 ft | 453 kts | 32° |
| 2026-05-07 06:34 | -6.47269 | 113.58360 | 20385 ft | 454 kts | 32° |
| 2026-05-07 06:34 | -6.44602 | 113.60072 | 20627 ft | 456 kts | 32° |
| 2026-05-07 06:34 | -6.41925 | 113.61794 | 20865 ft | 458 kts | 32° |
| 2026-05-07 06:35 | -6.39234 | 113.63518 | 21101 ft | 459 kts | 32° |
| 2026-05-07 06:35 | -6.36533 | 113.65246 | 21328 ft | 461 kts | 32° |
| 2026-05-07 06:35 | -6.33822 | 113.66980 | 21564 ft | 463 kts | 32° |
| 2026-05-07 06:35 | -6.31100 | 113.68719 | 21789 ft | 464 kts | 32° |
| 2026-05-07 06:36 | -6.28370 | 113.70463 | 22020 ft | 466 kts | 32° |
| 2026-05-07 06:36 | -6.25630 | 113.72214 | 22243 ft | 467 kts | 32° |
| 2026-05-07 06:36 | -6.22880 | 113.73970 | 22468 ft | 469 kts | 32° |
| 2026-05-07 06:36 | -6.20124 | 113.75728 | 22692 ft | 470 kts | 32° |
| 2026-05-07 06:37 | -6.17358 | 113.77493 | 22897 ft | 472 kts | 32° |
| 2026-05-07 06:37 | -6.14622 | 113.79240 | 23108 ft | 473 kts | 32° |
| 2026-05-07 06:37 | -6.11805 | 113.81041 | 23312 ft | 474 kts | 32° |
| 2026-05-07 06:37 | -6.09016 | 113.82825 | 23487 ft | 476 kts | 32° |
| 2026-05-07 06:38 | -6.06220 | 113.84613 | 23642 ft | 477 kts | 32° |
| 2026-05-07 06:38 | -6.03413 | 113.86405 | 23788 ft | 479 kts | 32° |
| 2026-05-07 06:38 | -6.00598 | 113.88200 | 23942 ft | 480 kts | 32° |
| 2026-05-07 06:38 | -5.97778 | 113.90003 | 24085 ft | 481 kts | 32° |
| 2026-05-07 06:39 | -5.94950 | 113.91816 | 24229 ft | 483 kts | 33° |
| 2026-05-07 06:39 | -5.92112 | 113.93631 | 24382 ft | 484 kts | 32° |
| 2026-05-07 06:39 | -5.89263 | 113.95447 | 24532 ft | 486 kts | 32° |
| 2026-05-07 06:39 | -5.86405 | 113.97265 | 24693 ft | 487 kts | 32° |
| 2026-05-07 06:40 | -5.83539 | 113.99088 | 24846 ft | 488 kts | 33° |
| 2026-05-07 06:40 | -5.80666 | 114.00918 | 24995 ft | 490 kts | 33° |
| 2026-05-07 06:40 | -5.77786 | 114.02757 | 25158 ft | 491 kts | 33° |
| 2026-05-07 06:40 | -5.74899 | 114.04602 | 25302 ft | 493 kts | 33° |
| 2026-05-07 06:41 | -5.72004 | 114.06450 | 25457 ft | 494 kts | 33° |
| 2026-05-07 06:41 | -5.69103 | 114.08303 | 25614 ft | 495 kts | 33° |
| 2026-05-07 06:41 | -5.66191 | 114.10158 | 25740 ft | 497 kts | 32° |
| 2026-05-07 06:41 | -5.63275 | 114.12014 | 25936 ft | 496 kts | 33° |
| 2026-05-07 06:42 | -5.60395 | 114.13849 | 26119 ft | 496 kts | 33° |
| 2026-05-07 06:42 | -5.57479 | 114.15705 | 26299 ft | 497 kts | 32° |
| 2026-05-07 06:42 | -5.54565 | 114.17559 | 26509 ft | 496 kts | 33° |
| 2026-05-07 06:42 | -5.51656 | 114.19413 | 26717 ft | 495 kts | 33° |
| 2026-05-07 06:43 | -5.48748 | 114.21266 | 26909 ft | 495 kts | 33° |
| 2026-05-07 06:43 | -5.45841 | 114.23123 | 27101 ft | 495 kts | 33° |
| 2026-05-07 06:43 | -5.42938 | 114.24980 | 27279 ft | 495 kts | 33° |
| 2026-05-07 06:43 | -5.40030 | 114.26834 | 27505 ft | 495 kts | 33° |
| 2026-05-07 06:44 | -5.37122 | 114.28685 | 27665 ft | 495 kts | 33° |
| 2026-05-07 06:44 | -5.34214 | 114.30533 | 27850 ft | 495 kts | 33° |
| 2026-05-07 06:44 | -5.31301 | 114.32384 | 28034 ft | 495 kts | 33° |
| 2026-05-07 06:44 | -5.28388 | 114.34237 | 28212 ft | 496 kts | 33° |
| 2026-05-07 06:45 | -5.25482 | 114.36091 | 28412 ft | 495 kts | 33° |
| 2026-05-07 06:45 | -5.22573 | 114.37949 | 28597 ft | 495 kts | 33° |
| 2026-05-07 06:45 | -5.19663 | 114.39803 | 28766 ft | 496 kts | 33° |
| 2026-05-07 06:45 | -5.16749 | 114.41654 | 28960 ft | 496 kts | 33° |
| 2026-05-07 06:46 | -5.13830 | 114.43504 | 29133 ft | 496 kts | 33° |
| 2026-05-07 06:46 | -5.10918 | 114.45353 | 29330 ft | 496 kts | 33° |
| 2026-05-07 06:46 | -5.08006 | 114.47205 | 29534 ft | 495 kts | 33° |
| 2026-05-07 06:46 | -5.05096 | 114.49056 | 29701 ft | 495 kts | 33° |
| 2026-05-07 06:47 | -5.02186 | 114.50908 | 29901 ft | 495 kts | 33° |
| 2026-05-07 06:47 | -4.99280 | 114.52759 | 30052 ft | 495 kts | 33° |
| 2026-05-07 06:47 | -4.96376 | 114.54607 | 30229 ft | 494 kts | 33° |
| 2026-05-07 06:47 | -4.93476 | 114.56448 | 30425 ft | 493 kts | 33° |
| 2026-05-07 06:48 | -4.90578 | 114.58288 | 30608 ft | 492 kts | 33° |
| 2026-05-07 06:48 | -4.87688 | 114.60124 | 30809 ft | 491 kts | 33° |
| 2026-05-07 06:48 | -4.84802 | 114.61957 | 31009 ft | 490 kts | 33° |
| 2026-05-07 06:48 | -4.81964 | 114.63762 | 31217 ft | 489 kts | 34° |
| 2026-05-07 06:49 | -4.79094 | 114.65586 | 31445 ft | 488 kts | 33° |
| 2026-05-07 06:49 | -4.76229 | 114.67405 | 31651 ft | 487 kts | 33° |
| 2026-05-07 06:49 | -4.73374 | 114.69218 | 31882 ft | 486 kts | 34° |
| 2026-05-07 06:49 | -4.70523 | 114.71027 | 32109 ft | 484 kts | 34° |
| 2026-05-07 06:50 | -4.67681 | 114.72830 | 32319 ft | 483 kts | 34° |
| 2026-05-07 06:50 | -4.64844 | 114.74631 | 32551 ft | 482 kts | 34° |
| 2026-05-07 06:50 | -4.62019 | 114.76425 | 32774 ft | 480 kts | 34° |
| 2026-05-07 06:50 | -4.59202 | 114.78217 | 33007 ft | 479 kts | 34° |
| 2026-05-07 06:51 | -4.56391 | 114.80006 | 33234 ft | 478 kts | 34° |
| 2026-05-07 06:51 | -4.53585 | 114.81788 | 33451 ft | 477 kts | 34° |
| 2026-05-07 06:51 | -4.50785 | 114.83561 | 33689 ft | 476 kts | 34° |
| 2026-05-07 06:51 | -4.47990 | 114.85333 | 33801 ft | 474 kts | 34° |
| 2026-05-07 06:52 | -4.42440 | 114.88852 | 33818 ft | 471 kts | 34° |
| 2026-05-07 06:52 | -4.36815 | 114.92212 | 33819 ft | 472 kts | 25° |
| 2026-05-07 06:53 | -4.30477 | 114.93911 | 33816 ft | 476 kts | 6° |
| 2026-05-07 06:53 | -4.23842 | 114.93832 | 33815 ft | 478 kts | 359° |
| 2026-05-07 06:54 | -4.17251 | 114.93619 | 33814 ft | 477 kts | 360° |
| 2026-05-07 06:54 | -4.10607 | 114.93416 | 33814 ft | 478 kts | 359° |
| 2026-05-07 06:55 | -4.03955 | 114.93212 | 33814 ft | 479 kts | 359° |
| 2026-05-07 06:55 | -3.97294 | 114.93003 | 33819 ft | 479 kts | 359° |
| 2026-05-07 06:56 | -3.90628 | 114.92795 | 33825 ft | 479 kts | 359° |
| 2026-05-07 06:56 | -3.83959 | 114.92584 | 33828 ft | 480 kts | 359° |
| 2026-05-07 06:57 | -3.77287 | 114.92376 | 33832 ft | 480 kts | 359° |
| 2026-05-07 06:57 | -3.70618 | 114.92161 | 33827 ft | 479 kts | 359° |
| 2026-05-07 06:58 | -3.63953 | 114.91945 | 33826 ft | 479 kts | 359° |
| 2026-05-07 06:58 | -3.57288 | 114.91736 | 33822 ft | 479 kts | 359° |
| 2026-05-07 06:59 | -3.50626 | 114.91531 | 33798 ft | 479 kts | 359° |
| 2026-05-07 06:59 | -3.43966 | 114.91321 | 33800 ft | 479 kts | 359° |
| 2026-05-07 07:00 | -3.37314 | 114.91106 | 33812 ft | 477 kts | 359° |
| 2026-05-07 07:00 | -3.30680 | 114.90899 | 33819 ft | 477 kts | 359° |
| 2026-05-07 07:01 | -3.24056 | 114.90696 | 33824 ft | 476 kts | 359° |
| 2026-05-07 07:01 | -3.17435 | 114.90486 | 33823 ft | 476 kts | 359° |
| 2026-05-07 07:02 | -3.10824 | 114.90274 | 33822 ft | 475 kts | 359° |
| 2026-05-07 07:02 | -3.04216 | 114.90068 | 33814 ft | 475 kts | 359° |
| 2026-05-07 07:03 | -2.97608 | 114.89866 | 33817 ft | 475 kts | 359° |
| 2026-05-07 07:03 | -2.91042 | 114.89661 | 33817 ft | 475 kts | 359° |
| 2026-05-07 07:04 | -2.84435 | 114.89449 | 33812 ft | 475 kts | 359° |
| 2026-05-07 07:04 | -2.77790 | 114.89243 | 33810 ft | 475 kts | 359° |
| 2026-05-07 07:05 | -2.71239 | 114.89035 | 33809 ft | 474 kts | 359° |
| 2026-05-07 07:05 | -2.64653 | 114.88826 | 33811 ft | 473 kts | 359° |
| 2026-05-07 07:06 | -2.58074 | 114.88618 | 33808 ft | 473 kts | 359° |
| 2026-05-07 07:06 | -2.51499 | 114.88415 | 33807 ft | 472 kts | 359° |
| 2026-05-07 07:07 | -2.44931 | 114.88209 | 33799 ft | 472 kts | 359° |
| 2026-05-07 07:07 | -2.38365 | 114.88000 | 33793 ft | 472 kts | 359° |
| 2026-05-07 07:08 | -2.31793 | 114.87801 | 33791 ft | 472 kts | 359° |
| 2026-05-07 07:08 | -2.25221 | 114.87593 | 33788 ft | 472 kts | 359° |
| 2026-05-07 07:09 | -2.18650 | 114.87382 | 33781 ft | 473 kts | 359° |
| 2026-05-07 07:09 | -2.12077 | 114.87168 | 33781 ft | 473 kts | 359° |
| 2026-05-07 07:10 | -2.06613 | 114.86993 | 33780 ft | 473 kts | 359° |
| 2026-05-07 07:10 | -1.98921 | 114.86754 | 33777 ft | 473 kts | 359° |
| 2026-05-07 07:11 | -1.93444 | 114.86583 | 33774 ft | 474 kts | 359° |
| 2026-05-07 07:11 | -1.86851 | 114.86382 | 33776 ft | 474 kts | 359° |
| 2026-05-07 07:12 | -1.80253 | 114.86182 | 33782 ft | 474 kts | 359° |
| 2026-05-07 07:12 | -1.73654 | 114.85969 | 33781 ft | 474 kts | 359° |
| 2026-05-07 07:13 | -1.67046 | 114.85758 | 33770 ft | 476 kts | 359° |
| 2026-05-07 07:13 | -1.60421 | 114.85548 | 33769 ft | 477 kts | 359° |
| 2026-05-07 07:14 | -1.53781 | 114.85338 | 33771 ft | 478 kts | 359° |
| 2026-05-07 07:14 | -1.47134 | 114.85136 | 33774 ft | 478 kts | 359° |
| 2026-05-07 07:15 | -1.40532 | 114.84927 | 33779 ft | 478 kts | 359° |
| 2026-05-07 07:15 | -1.33884 | 114.84715 | 33780 ft | 478 kts | 359° |
| 2026-05-07 07:16 | -1.27239 | 114.84499 | 33778 ft | 478 kts | 359° |
| 2026-05-07 07:16 | -1.20598 | 114.84294 | 33780 ft | 478 kts | 359° |
| 2026-05-07 07:17 | -1.13949 | 114.84093 | 33782 ft | 478 kts | 359° |
| 2026-05-07 07:17 | -1.07302 | 114.83892 | 33781 ft | 478 kts | 359° |
| 2026-05-07 07:18 | -1.00655 | 114.83686 | 33785 ft | 478 kts | 359° |
| 2026-05-07 07:18 | -0.94009 | 114.83491 | 33785 ft | 477 kts | 2° |
| 2026-05-07 07:19 | -0.87472 | 114.84399 | 33783 ft | 474 kts | 12° |
| 2026-05-07 07:19 | -0.80983 | 114.85634 | 33783 ft | 475 kts | 12° |
| 2026-05-07 07:20 | -0.74492 | 114.86865 | 33784 ft | 475 kts | 12° |
| 2026-05-07 07:20 | -0.67998 | 114.88094 | 33788 ft | 475 kts | 12° |
| 2026-05-07 07:21 | -0.61554 | 114.89324 | 33792 ft | 475 kts | 12° |
| 2026-05-07 07:21 | -0.55070 | 114.90555 | 33796 ft | 474 kts | 12° |
| 2026-05-07 07:22 | -0.48588 | 114.91785 | 33795 ft | 474 kts | 12° |
| 2026-05-07 07:22 | -0.42111 | 114.93012 | 33795 ft | 474 kts | 12° |
| 2026-05-07 07:23 | -0.35635 | 114.94239 | 33798 ft | 473 kts | 12° |
| 2026-05-07 07:23 | -0.29168 | 114.95469 | 33806 ft | 473 kts | 12° |
| 2026-05-07 07:24 | -0.22714 | 114.96696 | 33813 ft | 472 kts | 12° |
| 2026-05-07 07:24 | -0.16271 | 114.97922 | 33812 ft | 471 kts | 12° |
| 2026-05-07 07:25 | -0.06615 | 114.99755 | 33813 ft | 471 kts | 12° |
| 2026-05-07 07:26 | -0.00180 | 115.00967 | 33813 ft | 470 kts | 12° |
| 2026-05-07 07:26 | 0.06240 | 115.02189 | 33806 ft | 469 kts | 12° |
| 2026-05-07 07:27 | 0.12649 | 115.03412 | 33807 ft | 469 kts | 12° |
| 2026-05-07 07:27 | 0.19016 | 115.04616 | 33807 ft | 469 kts | 12° |
| 2026-05-07 07:28 | 0.25433 | 115.05833 | 33807 ft | 470 kts | 12° |
| 2026-05-07 07:28 | 0.31877 | 115.07055 | 33811 ft | 472 kts | 12° |
| 2026-05-07 07:29 | 0.38365 | 115.08290 | 33828 ft | 475 kts | 12° |
| 2026-05-07 07:29 | 0.44842 | 115.09523 | 33833 ft | 473 kts | 12° |
| 2026-05-07 07:30 | 0.51300 | 115.10741 | 33825 ft | 471 kts | 12° |
| 2026-05-07 07:30 | 0.57737 | 115.11963 | 33832 ft | 470 kts | 12° |
| 2026-05-07 07:31 | 0.64163 | 115.13184 | 33828 ft | 470 kts | 12° |
| 2026-05-07 07:31 | 0.70580 | 115.14403 | 33829 ft | 469 kts | 12° |
| 2026-05-07 07:32 | 0.76999 | 115.15622 | 33821 ft | 470 kts | 12° |
| 2026-05-07 07:32 | 0.83423 | 115.16837 | 33829 ft | 470 kts | 12° |
| 2026-05-07 07:33 | 0.89848 | 115.18061 | 33829 ft | 470 kts | 12° |
| 2026-05-07 07:33 | 0.96138 | 115.19250 | 33814 ft | 449 kts | 12° |
| 2026-05-07 07:33 | 0.99152 | 115.19816 | 33715 ft | 435 kts | 12° |
| 2026-05-07 07:34 | 1.02087 | 115.20367 | 33480 ft | 423 kts | 12° |
| 2026-05-07 07:34 | 1.04945 | 115.20902 | 33254 ft | 414 kts | 12° |
| 2026-05-07 07:34 | 1.07766 | 115.21432 | 33027 ft | 411 kts | 12° |
| 2026-05-07 07:34 | 1.10567 | 115.21959 | 32803 ft | 408 kts | 12° |
| 2026-05-07 07:35 | 1.13350 | 115.22481 | 32582 ft | 406 kts | 12° |
| 2026-05-07 07:35 | 1.16121 | 115.23003 | 32360 ft | 404 kts | 12° |
| 2026-05-07 07:35 | 1.18879 | 115.23528 | 32141 ft | 402 kts | 12° |
| 2026-05-07 07:35 | 1.21625 | 115.24050 | 31926 ft | 401 kts | 12° |
| 2026-05-07 07:36 | 1.24356 | 115.24566 | 31714 ft | 399 kts | 12° |
| 2026-05-07 07:36 | 1.27077 | 115.25080 | 31500 ft | 397 kts | 12° |
| 2026-05-07 07:36 | 1.29786 | 115.25596 | 31294 ft | 396 kts | 12° |
| 2026-05-07 07:36 | 1.32483 | 115.26112 | 31077 ft | 394 kts | 12° |
| 2026-05-07 07:37 | 1.35167 | 115.26625 | 30873 ft | 392 kts | 12° |
| 2026-05-07 07:37 | 1.37842 | 115.27133 | 30665 ft | 391 kts | 12° |
| 2026-05-07 07:37 | 1.40516 | 115.27591 | 30452 ft | 389 kts | 11° |
| 2026-05-07 07:37 | 1.43181 | 115.28003 | 30256 ft | 387 kts | 10° |
| 2026-05-07 07:38 | 1.45840 | 115.28392 | 30054 ft | 385 kts | 9° |
| 2026-05-07 07:38 | 1.48490 | 115.28773 | 29845 ft | 384 kts | 9° |
| 2026-05-07 07:38 | 1.51093 | 115.29154 | 29586 ft | 382 kts | 10° |
| 2026-05-07 07:38 | 1.53714 | 115.29548 | 29307 ft | 380 kts | 10° |
| 2026-05-07 07:39 | 1.56317 | 115.29947 | 29020 ft | 377 kts | 10° |
| 2026-05-07 07:39 | 1.58903 | 115.30345 | 28735 ft | 375 kts | 10° |
| 2026-05-07 07:39 | 1.61478 | 115.30743 | 28455 ft | 373 kts | 10° |
| 2026-05-07 07:39 | 1.64034 | 115.31140 | 28177 ft | 371 kts | 10° |
| 2026-05-07 07:40 | 1.66574 | 115.31535 | 27902 ft | 368 kts | 10° |
| 2026-05-07 07:40 | 1.69100 | 115.31931 | 27628 ft | 366 kts | 10° |
| 2026-05-07 07:40 | 1.71629 | 115.32323 | 27363 ft | 370 kts | 10° |
| 2026-05-07 07:40 | 1.74177 | 115.32712 | 27096 ft | 368 kts | 10° |
| 2026-05-07 07:41 | 1.76679 | 115.33097 | 26868 ft | 361 kts | 10° |
| 2026-05-07 07:41 | 1.79151 | 115.33477 | 26628 ft | 358 kts | 10° |
| 2026-05-07 07:41 | 1.81603 | 115.33851 | 26392 ft | 356 kts | 10° |
| 2026-05-07 07:41 | 1.84043 | 115.34224 | 26158 ft | 354 kts | 10° |
| 2026-05-07 07:42 | 1.86472 | 115.34591 | 25882 ft | 353 kts | 10° |
| 2026-05-07 07:42 | 1.88913 | 115.34916 | 25564 ft | 355 kts | 8° |
| 2026-05-07 07:42 | 1.91405 | 115.35197 | 24978 ft | 366 kts | 8° |
| 2026-05-07 07:42 | 1.93969 | 115.35505 | 24395 ft | 374 kts | 9° |
| 2026-05-07 07:43 | 1.96576 | 115.35849 | 23700 ft | 383 kts | 9° |
| 2026-05-07 07:43 | 1.99216 | 115.36204 | 23288 ft | 382 kts | 9° |
| 2026-05-07 07:43 | 2.01821 | 115.36549 | 23070 ft | 374 kts | 6° |
| 2026-05-07 07:43 | 2.04412 | 115.36748 | 22652 ft | 372 kts | 5° |
| 2026-05-07 07:44 | 2.06967 | 115.36894 | 22429 ft | 364 kts | 6° |
| 2026-05-07 07:44 | 2.09458 | 115.37063 | 22299 ft | 353 kts | 7° |
| 2026-05-07 07:44 | 2.11857 | 115.37320 | 22259 ft | 341 kts | 2° |
| 2026-05-07 07:44 | 2.14222 | 115.37239 | 21755 ft | 345 kts | 2° |
| 2026-05-07 07:45 | 2.16671 | 115.37269 | 21008 ft | 359 kts | 2° |
| 2026-05-07 07:45 | 2.19206 | 115.37202 | 20341 ft | 370 kts | 358° |
| 2026-05-07 07:45 | 2.21785 | 115.37051 | 19642 ft | 381 kts | 359° |
| 2026-05-07 07:45 | 2.24463 | 115.36951 | 18977 ft | 390 kts | 2° |
| 2026-05-07 07:46 | 2.27197 | 115.37117 | 18285 ft | 398 kts | 6° |
| 2026-05-07 07:46 | 2.29968 | 115.37388 | 17643 ft | 402 kts | 8° |
| 2026-05-07 07:46 | 2.32740 | 115.37849 | 16966 ft | 406 kts | 12° |
| 2026-05-07 07:46 | 2.35481 | 115.38426 | 16806 ft | 396 kts | 13° |
| 2026-05-07 07:47 | 2.38112 | 115.39023 | 16763 ft | 383 kts | 14° |
| 2026-05-07 07:47 | 2.40686 | 115.39654 | 16474 ft | 379 kts | 15° |
| 2026-05-07 07:47 | 2.43262 | 115.40295 | 15798 ft | 386 kts | 14° |
| 2026-05-07 07:47 | 2.45941 | 115.40854 | 14773 ft | 402 kts | 12° |
| 2026-05-07 07:48 | 2.48748 | 115.41430 | 13524 ft | 423 kts | 14° |
| 2026-05-07 07:48 | 2.51571 | 115.42209 | 13109 ft | 417 kts | 18° |
| 2026-05-07 07:48 | 2.54276 | 115.43187 | 12697 ft | 410 kts | 25° |
| 2026-05-07 07:48 | 2.56832 | 115.44492 | 11840 ft | 417 kts | 32° |
| 2026-05-07 07:49 | 2.59306 | 115.45998 | 11357 ft | 414 kts | 30° |
| 2026-05-07 07:49 | 2.61743 | 115.47447 | 11283 ft | 396 kts | 34° |
| 2026-05-07 07:49 | 2.63924 | 115.48889 | 11726 ft | 357 kts | 34° |